Etusivu
METAR-TAF:

METAR-TAF

Lentoasemat :

Antwerpenin kansainvälinen lentoasema

Antwerpen, Belgia

Leveyspiiri: 51-12N, Pituuspiiri: 004-28E, korkeus merenpinnasta: 12 m

Tämänhetkinen sää

Tämä raportti tehtiin 15 minuuttia sitten, kello 15.20 UTC
Tuuli 2 kn eri suunnista
Lämpötila 14°C
Kosteus 63%
Ilmanpaine 1033 hPa
Näkyvyys 10 km tai enemmän
ei pilviä alle 1500 m:ssä eikä cumulonimbus-pilviä

METAR: EBAW 211520Z VRB02KT CAVOK 14/07 Q1033 NOSIG

Aika: 16:35 (15:35 UTC)

Sääennuste

Tämä raportti tehtiin 1 tunti ja 29 minuuttia sitten, kello 14.06 UTC
Ennuste voimassa 21. päivästä klo 15 UTC - 21. päivään klo 24 UTC
Tuuli 4 kn pohjoisesta
Näkyvyys 10 km tai enemmän
Muutamia pilviä 2000 ft:n korkeudessa
Todennäköisyys 30% :
Ajoittain
21. päivästä klo 22 UTC - 21. päivään klo 24 UTC
Näkyvyys: 3500 m
utua

TAF: EBAW 211406Z 2115/2124 01004KT 9999 FEW020 PROB30 TEMPO 2122/2124 3500 BR

Säähavainnot ja -ennusteet yli 4000 lentoasemalta (METAR- ja TAF-raportit).

Käytössä olevat sääasemat on merkitty karttaan keltaisilla ja punaisilla pisteillä.

Aseta hiiri pisteen päälle nähdäksesi sääaseman nimen.

Klikkaa sitten nähdäksesi säähavainnot ja -ennusteet.

Kartan vaihtaminen: klikkaa mustalla rastilla varustettuja vihreitä pisteitä, niin voit zoomata sisään; viivalla varustettua vihreää pistettä, niin voit zoomata ulos tai vihreitä nuolia, niin pääset viereisille kartoille.


METAR-TAF: